sensor_id;sensor_type;location;lat;lon;timestamp;P1;durP1;ratioP1;P2;durP2;ratioP2
65535;SDS011;52145;49.342;9.116;2023-02-08T00:01:07;21.05;;;10.68;;
65535;SDS011;52145;49.342;9.116;2023-02-08T00:03:33;19.73;;;11.60;;
65535;SDS011;52145;49.342;9.116;2023-02-08T00:05:59;20.45;;;10.82;;
65535;SDS011;52145;49.342;9.116;2023-02-08T00:08:25;20.10;;;11.00;;
65535;SDS011;52145;49.342;9.116;2023-02-08T00:10:50;20.10;;;11.40;;
65535;SDS011;52145;49.342;9.116;2023-02-08T00:13:16;20.73;;;11.85;;
65535;SDS011;52145;49.342;9.116;2023-02-08T00:15:42;21.63;;;10.57;;
65535;SDS011;52145;49.342;9.116;2023-02-08T00:18:08;21.58;;;11.43;;
65535;SDS011;52145;49.342;9.116;2023-02-08T00:20:34;20.05;;;10.95;;
65535;SDS011;52145;49.342;9.116;2023-02-08T00:23:01;19.27;;;10.18;;
65535;SDS011;52145;49.342;9.116;2023-02-08T00:25:27;21.17;;;10.43;;
65535;SDS011;52145;49.342;9.116;2023-02-08T00:27:52;19.63;;;10.40;;
65535;SDS011;52145;49.342;9.116;2023-02-08T00:30:18;19.65;;;10.40;;
65535;SDS011;52145;49.342;9.116;2023-02-08T12:22:00;14.18;;;8.43;;
65535;SDS011;52145;49.342;9.116;2023-02-08T12:35:20;13.43;;;8.30;;
65535;SDS011;52145;49.342;9.116;2023-02-08T12:37:58;16.80;;;9.25;;
65535;SDS011;52145;49.342;9.116;2023-02-08T12:41:01;15.00;;;8.63;;
65535;SDS011;52145;49.342;9.116;2023-02-08T12:46:16;13.90;;;8.60;;
65535;SDS011;52145;49.342;9.116;2023-02-08T12:49:07;13.18;;;8.32;;
65535;SDS011;52145;49.342;9.116;2023-02-08T12:52:02;13.30;;;8.77;;
65535;SDS011;52145;49.342;9.116;2023-02-08T12:54:50;12.18;;;7.40;;
65535;SDS011;52145;49.342;9.116;2023-02-08T12:57:21;13.85;;;7.32;;
65535;SDS011;52145;49.342;9.116;2023-02-08T12:59:54;11.90;;;7.20;;
65535;SDS011;52145;49.342;9.116;2023-02-08T13:02:34;11.82;;;6.78;;
65535;SDS011;52145;49.342;9.116;2023-02-08T13:05:13;11.25;;;6.82;;
65535;SDS011;52145;49.342;9.116;2023-02-08T13:07:43;12.05;;;7.47;;
65535;SDS011;52145;49.342;9.116;2023-02-08T13:10:21;12.05;;;7.50;;
65535;SDS011;52145;49.342;9.116;2023-02-08T13:13:03;10.77;;;6.75;;
65535;SDS011;52145;49.342;9.116;2023-02-08T13:15:42;12.07;;;7.45;;
65535;SDS011;52145;49.342;9.116;2023-02-08T13:18:16;10.63;;;6.85;;
65535;SDS011;52145;49.342;9.116;2023-02-08T13:20:46;11.73;;;6.50;;
65535;SDS011;52145;49.342;9.116;2023-02-08T13:23:26;10.93;;;7.03;;
65535;SDS011;52145;49.342;9.116;2023-02-08T13:26:21;19.25;;;9.13;;
65535;SDS011;52145;49.342;9.116;2023-02-08T13:28:52;16.92;;;7.28;;
65535;SDS011;52145;49.342;9.116;2023-02-08T13:31:30;13.05;;;6.78;;
65535;SDS011;52145;49.342;9.116;2023-02-08T13:34:17;12.05;;;7.45;;
65535;SDS011;52145;49.342;9.116;2023-02-08T13:36:54;13.25;;;6.80;;
65535;SDS011;52145;49.342;9.116;2023-02-08T13:42:05;10.68;;;6.07;;
65535;SDS011;52145;49.342;9.116;2023-02-08T13:44:42;12.50;;;6.82;;
65535;SDS011;52145;49.342;9.116;2023-02-08T13:47:21;13.43;;;7.30;;
65535;SDS011;52145;49.342;9.116;2023-02-08T13:49:55;12.65;;;6.72;;
65535;SDS011;52145;49.342;9.116;2023-02-08T13:58:02;9.52;;;6.32;;
65535;SDS011;52145;49.342;9.116;2023-02-08T14:00:35;10.93;;;6.10;;
65535;SDS011;52145;49.342;9.116;2023-02-08T14:03:02;10.90;;;6.95;;
65535;SDS011;52145;49.342;9.116;2023-02-08T14:05:33;9.00;;;5.82;;
65535;SDS011;52145;49.342;9.116;2023-02-08T14:08:28;10.65;;;6.25;;
65535;SDS011;52145;49.342;9.116;2023-02-08T14:14:17;10.18;;;6.72;;
65535;SDS011;52145;49.342;9.116;2023-02-08T14:19:34;13.47;;;7.70;;
65535;SDS011;52145;49.342;9.116;2023-02-08T14:22:12;12.05;;;7.47;;
65535;SDS011;52145;49.342;9.116;2023-02-08T14:24:46;12.65;;;8.05;;
65535;SDS011;52145;49.342;9.116;2023-02-08T14:29:57;14.25;;;8.50;;
65535;SDS011;52145;49.342;9.116;2023-02-08T14:32:24;13.82;;;8.75;;
65535;SDS011;52145;49.342;9.116;2023-02-08T14:35:06;12.82;;;7.85;;
65535;SDS011;52145;49.342;9.116;2023-02-08T14:37:38;13.55;;;8.38;;
65535;SDS011;52145;49.342;9.116;2023-02-08T14:45:36;13.52;;;8.10;;
65535;SDS011;52145;49.342;9.116;2023-02-08T14:48:14;14.43;;;7.95;;
65535;SDS011;52145;49.342;9.116;2023-02-08T14:53:46;18.15;;;10.40;;
65535;SDS011;52145;49.342;9.116;2023-02-08T14:56:19;15.55;;;8.73;;
65535;SDS011;52145;49.342;9.116;2023-02-08T14:59:15;12.85;;;7.80;;
65535;SDS011;52145;49.342;9.116;2023-02-08T15:01:51;14.02;;;8.80;;
65535;SDS011;52145;49.342;9.116;2023-02-08T15:04:20;15.07;;;8.63;;
65535;SDS011;52145;49.342;9.116;2023-02-08T15:09:36;17.83;;;9.05;;
65535;SDS011;52145;49.342;9.116;2023-02-08T15:12:07;16.88;;;8.10;;
65535;SDS011;52145;49.342;9.116;2023-02-08T15:14:51;16.80;;;9.15;;
65535;SDS011;52145;49.342;9.116;2023-02-08T15:17:20;15.43;;;8.55;;
65535;SDS011;52145;49.342;9.116;2023-02-08T15:19:54;17.10;;;8.75;;
65535;SDS011;52145;49.342;9.116;2023-02-08T15:24:49;18.17;;;8.70;;
65535;SDS011;52145;49.342;9.116;2023-02-08T15:27:18;16.38;;;7.93;;
65535;SDS011;52145;49.342;9.116;2023-02-08T15:29:46;14.63;;;8.40;;
65535;SDS011;52145;49.342;9.116;2023-02-08T15:32:12;17.67;;;8.50;;
65535;SDS011;52145;49.342;9.116;2023-02-08T15:34:44;17.42;;;9.45;;
65535;SDS011;52145;49.342;9.116;2023-02-08T15:37:14;14.93;;;8.85;;
65535;SDS011;52145;49.342;9.116;2023-02-08T15:39:41;16.20;;;9.13;;
65535;SDS011;52145;49.342;9.116;2023-02-08T15:42:17;16.88;;;9.15;;
65535;SDS011;52145;49.342;9.116;2023-02-08T15:44:45;17.77;;;9.00;;
65535;SDS011;52145;49.342;9.116;2023-02-08T15:47:14;18.23;;;9.27;;
65535;SDS011;52145;49.342;9.116;2023-02-08T15:49:43;16.92;;;10.05;;
65535;SDS011;52145;49.342;9.116;2023-02-08T15:52:13;20.40;;;9.82;;
65535;SDS011;52145;49.342;9.116;2023-02-08T15:54:41;21.25;;;11.55;;
65535;SDS011;52145;49.342;9.116;2023-02-08T15:57:16;17.45;;;9.73;;
65535;SDS011;52145;49.342;9.116;2023-02-08T15:59:51;21.10;;;11.35;;
65535;SDS011;52145;49.342;9.116;2023-02-08T16:04:53;17.63;;;10.50;;
65535;SDS011;52145;49.342;9.116;2023-02-08T16:10:04;27.13;;;12.93;;
65535;SDS011;52145;49.342;9.116;2023-02-08T16:12:32;21.30;;;11.85;;
65535;SDS011;52145;49.342;9.116;2023-02-08T16:14:58;22.33;;;12.00;;
65535;SDS011;52145;49.342;9.116;2023-02-08T16:17:43;21.15;;;11.95;;
65535;SDS011;52145;49.342;9.116;2023-02-08T16:20:23;20.35;;;11.15;;
65535;SDS011;52145;49.342;9.116;2023-02-08T16:22:55;20.20;;;11.43;;
65535;SDS011;52145;49.342;9.116;2023-02-08T16:28:29;23.77;;;11.98;;
65535;SDS011;52145;49.342;9.116;2023-02-08T16:31:00;22.10;;;12.65;;
65535;SDS011;52145;49.342;9.116;2023-02-08T16:33:28;33.65;;;12.82;;
65535;SDS011;52145;49.342;9.116;2023-02-08T16:35:55;21.13;;;12.25;;
65535;SDS011;52145;49.342;9.116;2023-02-08T16:38:30;22.25;;;12.02;;
65535;SDS011;52145;49.342;9.116;2023-02-08T16:40:59;21.13;;;11.13;;
65535;SDS011;52145;49.342;9.116;2023-02-08T16:43:40;25.85;;;12.48;;
65535;SDS011;52145;49.342;9.116;2023-02-08T16:48:55;22.17;;;12.32;;
65535;SDS011;52145;49.342;9.116;2023-02-08T16:51:26;23.65;;;12.93;;
65535;SDS011;52145;49.342;9.116;2023-02-08T16:54:00;28.60;;;13.32;;
65535;SDS011;52145;49.342;9.116;2023-02-08T16:56:33;22.38;;;11.93;;
65535;SDS011;52145;49.342;9.116;2023-02-08T16:58:59;23.60;;;11.70;;
65535;SDS011;52145;49.342;9.116;2023-02-08T17:01:25;22.17;;;12.77;;
65535;SDS011;52145;49.342;9.116;2023-02-08T17:03:52;24.15;;;11.15;;
65535;SDS011;52145;49.342;9.116;2023-02-08T17:09:00;28.27;;;12.32;;
65535;SDS011;52145;49.342;9.116;2023-02-08T17:11:28;27.75;;;12.65;;
65535;SDS011;52145;49.342;9.116;2023-02-08T17:13:55;23.05;;;12.10;;
65535;SDS011;52145;49.342;9.116;2023-02-08T17:16:23;23.60;;;12.68;;
65535;SDS011;52145;49.342;9.116;2023-02-08T17:18:50;26.00;;;13.00;;
65535;SDS011;52145;49.342;9.116;2023-02-08T17:21:16;31.27;;;15.13;;
65535;SDS011;52145;49.342;9.116;2023-02-08T17:23:43;32.67;;;15.85;;
65535;SDS011;52145;49.342;9.116;2023-02-08T17:26:11;32.92;;;16.35;;
65535;SDS011;52145;49.342;9.116;2023-02-08T17:28:43;28.83;;;15.17;;
65535;SDS011;52145;49.342;9.116;2023-02-08T17:31:10;33.13;;;14.00;;
65535;SDS011;52145;49.342;9.116;2023-02-08T17:33:37;27.08;;;12.65;;
65535;SDS011;52145;49.342;9.116;2023-02-08T17:36:04;27.85;;;12.48;;
65535;SDS011;52145;49.342;9.116;2023-02-08T17:38:34;28.40;;;13.70;;
65535;SDS011;52145;49.342;9.116;2023-02-08T17:41:03;32.08;;;15.32;;
65535;SDS011;52145;49.342;9.116;2023-02-08T17:43:30;28.33;;;14.50;;
65535;SDS011;52145;49.342;9.116;2023-02-08T17:45:56;32.17;;;15.43;;
65535;SDS011;52145;49.342;9.116;2023-02-08T17:48:21;49.42;;;22.00;;
65535;SDS011;52145;49.342;9.116;2023-02-08T17:50:47;60.55;;;21.38;;
65535;SDS011;52145;49.342;9.116;2023-02-08T17:53:15;34.83;;;15.02;;
65535;SDS011;52145;49.342;9.116;2023-02-08T17:55:42;25.65;;;13.23;;
65535;SDS011;52145;49.342;9.116;2023-02-08T17:58:09;35.72;;;13.80;;
65535;SDS011;52145;49.342;9.116;2023-02-08T18:00:35;28.98;;;13.50;;
65535;SDS011;52145;49.342;9.116;2023-02-08T18:03:01;25.55;;;14.48;;
65535;SDS011;52145;49.342;9.116;2023-02-08T18:05:27;26.30;;;14.07;;
65535;SDS011;52145;49.342;9.116;2023-02-08T18:07:54;34.72;;;14.55;;
65535;SDS011;52145;49.342;9.116;2023-02-08T18:10:20;36.53;;;16.55;;
65535;SDS011;52145;49.342;9.116;2023-02-08T18:12:47;25.73;;;13.18;;
65535;SDS011;52145;49.342;9.116;2023-02-08T18:15:14;29.75;;;13.98;;
65535;SDS011;52145;49.342;9.116;2023-02-08T18:17:44;29.25;;;13.50;;
65535;SDS011;52145;49.342;9.116;2023-02-08T18:20:11;26.17;;;13.13;;
65535;SDS011;52145;49.342;9.116;2023-02-08T18:22:41;24.58;;;12.82;;
65535;SDS011;52145;49.342;9.116;2023-02-08T18:25:07;24.38;;;12.70;;
65535;SDS011;52145;49.342;9.116;2023-02-08T18:27:33;26.75;;;13.27;;
65535;SDS011;52145;49.342;9.116;2023-02-08T18:29:59;26.27;;;13.65;;
65535;SDS011;52145;49.342;9.116;2023-02-08T18:32:25;27.15;;;13.13;;
65535;SDS011;52145;49.342;9.116;2023-02-08T18:34:52;24.73;;;13.20;;
65535;SDS011;52145;49.342;9.116;2023-02-08T18:37:18;24.30;;;13.18;;
65535;SDS011;52145;49.342;9.116;2023-02-08T18:39:44;25.55;;;14.50;;
65535;SDS011;52145;49.342;9.116;2023-02-08T18:42:09;24.85;;;13.00;;
65535;SDS011;52145;49.342;9.116;2023-02-08T18:44:36;23.95;;;12.90;;
65535;SDS011;52145;49.342;9.116;2023-02-08T18:47:06;29.58;;;13.45;;
65535;SDS011;52145;49.342;9.116;2023-02-08T18:49:32;26.30;;;13.52;;
65535;SDS011;52145;49.342;9.116;2023-02-08T18:52:04;35.13;;;16.98;;
65535;SDS011;52145;49.342;9.116;2023-02-08T18:54:35;28.67;;;14.63;;
65535;SDS011;52145;49.342;9.116;2023-02-08T18:57:01;32.58;;;15.70;;
65535;SDS011;52145;49.342;9.116;2023-02-08T18:59:27;27.13;;;14.73;;
65535;SDS011;52145;49.342;9.116;2023-02-08T19:01:52;27.17;;;13.70;;
65535;SDS011;52145;49.342;9.116;2023-02-08T19:04:18;28.50;;;13.55;;
65535;SDS011;52145;49.342;9.116;2023-02-08T19:06:44;24.30;;;12.52;;
65535;SDS011;52145;49.342;9.116;2023-02-08T19:09:09;27.75;;;14.20;;
65535;SDS011;52145;49.342;9.116;2023-02-08T19:11:36;24.48;;;12.63;;
65535;SDS011;52145;49.342;9.116;2023-02-08T19:14:05;27.00;;;13.38;;
65535;SDS011;52145;49.342;9.116;2023-02-08T19:16:34;24.45;;;13.85;;
65535;SDS011;52145;49.342;9.116;2023-02-08T19:19:01;30.27;;;13.63;;
65535;SDS011;52145;49.342;9.116;2023-02-08T19:21:28;27.50;;;12.95;;
65535;SDS011;52145;49.342;9.116;2023-02-08T19:23:55;25.80;;;13.25;;
65535;SDS011;52145;49.342;9.116;2023-02-08T19:26:25;24.40;;;13.02;;
65535;SDS011;52145;49.342;9.116;2023-02-08T19:28:53;26.25;;;13.23;;
65535;SDS011;52145;49.342;9.116;2023-02-08T19:31:21;25.02;;;12.35;;
65535;SDS011;52145;49.342;9.116;2023-02-08T19:33:49;24.63;;;12.98;;
65535;SDS011;52145;49.342;9.116;2023-02-08T19:36:18;25.60;;;12.60;;
65535;SDS011;52145;49.342;9.116;2023-02-08T19:38:46;23.23;;;12.52;;
65535;SDS011;52145;49.342;9.116;2023-02-08T19:41:13;28.58;;;14.27;;
65535;SDS011;52145;49.342;9.116;2023-02-08T19:43:41;27.77;;;13.27;;
65535;SDS011;52145;49.342;9.116;2023-02-08T19:46:11;27.23;;;14.25;;
65535;SDS011;52145;49.342;9.116;2023-02-08T19:48:38;26.50;;;13.75;;
65535;SDS011;52145;49.342;9.116;2023-02-08T19:51:04;26.13;;;13.25;;
65535;SDS011;52145;49.342;9.116;2023-02-08T19:53:30;28.85;;;13.88;;
65535;SDS011;52145;49.342;9.116;2023-02-08T19:55:57;27.08;;;14.63;;
65535;SDS011;52145;49.342;9.116;2023-02-08T19:58:28;29.52;;;15.32;;
65535;SDS011;52145;49.342;9.116;2023-02-08T20:00:54;30.65;;;15.18;;
65535;SDS011;52145;49.342;9.116;2023-02-08T20:03:20;29.73;;;14.85;;
65535;SDS011;52145;49.342;9.116;2023-02-08T20:05:47;27.65;;;14.15;;
65535;SDS011;52145;49.342;9.116;2023-02-08T20:08:13;29.20;;;13.57;;
65535;SDS011;52145;49.342;9.116;2023-02-08T20:10:40;28.75;;;15.05;;
65535;SDS011;52145;49.342;9.116;2023-02-08T20:13:08;29.90;;;15.23;;
65535;SDS011;52145;49.342;9.116;2023-02-08T20:15:34;32.30;;;15.73;;
65535;SDS011;52145;49.342;9.116;2023-02-08T20:18:01;32.80;;;15.40;;
65535;SDS011;52145;49.342;9.116;2023-02-08T20:20:28;29.73;;;15.25;;
65535;SDS011;52145;49.342;9.116;2023-02-08T20:22:53;25.17;;;14.57;;
65535;SDS011;52145;49.342;9.116;2023-02-08T20:25:19;30.70;;;13.93;;
65535;SDS011;52145;49.342;9.116;2023-02-08T20:27:45;27.52;;;13.63;;
65535;SDS011;52145;49.342;9.116;2023-02-08T20:30:10;25.95;;;11.68;;
65535;SDS011;52145;49.342;9.116;2023-02-08T20:32:37;26.73;;;12.90;;
65535;SDS011;52145;49.342;9.116;2023-02-08T20:35:04;24.83;;;12.43;;
65535;SDS011;52145;49.342;9.116;2023-02-08T20:37:31;29.10;;;13.13;;
65535;SDS011;52145;49.342;9.116;2023-02-08T20:39:56;27.17;;;12.75;;
65535;SDS011;52145;49.342;9.116;2023-02-08T20:42:22;27.27;;;13.23;;
65535;SDS011;52145;49.342;9.116;2023-02-08T20:44:48;29.13;;;13.48;;
65535;SDS011;52145;49.342;9.116;2023-02-08T20:47:13;24.17;;;12.32;;
65535;SDS011;52145;49.342;9.116;2023-02-08T20:49:43;97.97;;;41.90;;
65535;SDS011;52145;49.342;9.116;2023-02-08T20:52:09;36.97;;;16.25;;
65535;SDS011;52145;49.342;9.116;2023-02-08T20:54:35;27.60;;;12.70;;
65535;SDS011;52145;49.342;9.116;2023-02-08T20:57:01;22.13;;;11.07;;
65535;SDS011;52145;49.342;9.116;2023-02-08T20:59:27;23.38;;;11.90;;
65535;SDS011;52145;49.342;9.116;2023-02-08T21:01:52;21.88;;;10.95;;
65535;SDS011;52145;49.342;9.116;2023-02-08T21:04:18;21.23;;;11.15;;
65535;SDS011;52145;49.342;9.116;2023-02-08T21:06:47;21.48;;;10.35;;
65535;SDS011;52145;49.342;9.116;2023-02-08T21:09:15;23.45;;;10.13;;
65535;SDS011;52145;49.342;9.116;2023-02-08T21:11:42;19.92;;;9.77;;
65535;SDS011;52145;49.342;9.116;2023-02-08T21:14:09;20.45;;;10.27;;
65535;SDS011;52145;49.342;9.116;2023-02-08T21:16:39;21.20;;;10.30;;
65535;SDS011;52145;49.342;9.116;2023-02-08T21:19:05;22.52;;;11.25;;
65535;SDS011;52145;49.342;9.116;2023-02-08T21:21:30;21.23;;;11.00;;
65535;SDS011;52145;49.342;9.116;2023-02-08T21:23:56;25.45;;;10.90;;
65535;SDS011;52145;49.342;9.116;2023-02-08T21:26:22;24.83;;;11.43;;
65535;SDS011;52145;49.342;9.116;2023-02-08T21:28:52;24.70;;;11.18;;
65535;SDS011;52145;49.342;9.116;2023-02-08T21:31:19;21.70;;;11.32;;
65535;SDS011;52145;49.342;9.116;2023-02-08T21:33:46;26.65;;;11.27;;
65535;SDS011;52145;49.342;9.116;2023-02-08T21:36:13;24.40;;;12.18;;
65535;SDS011;52145;49.342;9.116;2023-02-08T21:38:41;23.17;;;12.05;;
65535;SDS011;52145;49.342;9.116;2023-02-08T21:41:07;22.63;;;11.40;;
65535;SDS011;52145;49.342;9.116;2023-02-08T21:43:47;21.02;;;11.30;;
65535;SDS011;52145;49.342;9.116;2023-02-08T21:46:14;22.25;;;11.18;;
65535;SDS011;52145;49.342;9.116;2023-02-08T21:48:40;24.20;;;11.55;;
65535;SDS011;52145;49.342;9.116;2023-02-08T21:51:25;22.40;;;11.98;;
65535;SDS011;52145;49.342;9.116;2023-02-08T21:54:10;26.23;;;10.95;;
65535;SDS011;52145;49.342;9.116;2023-02-08T21:57:02;26.20;;;11.85;;
65535;SDS011;52145;49.342;9.116;2023-02-08T21:59:31;24.45;;;10.98;;
65535;SDS011;52145;49.342;9.116;2023-02-08T22:02:00;25.77;;;12.38;;
65535;SDS011;52145;49.342;9.116;2023-02-08T22:04:27;23.75;;;11.27;;
65535;SDS011;52145;49.342;9.116;2023-02-08T22:06:52;23.52;;;12.20;;
65535;SDS011;52145;49.342;9.116;2023-02-08T22:09:18;25.30;;;11.27;;
65535;SDS011;52145;49.342;9.116;2023-02-08T22:11:46;25.92;;;12.77;;
65535;SDS011;52145;49.342;9.116;2023-02-08T22:14:13;25.38;;;12.77;;
65535;SDS011;52145;49.342;9.116;2023-02-08T22:16:39;23.02;;;11.35;;
65535;SDS011;52145;49.342;9.116;2023-02-08T22:19:05;24.25;;;12.35;;
65535;SDS011;52145;49.342;9.116;2023-02-08T22:21:32;25.52;;;11.70;;
65535;SDS011;52145;49.342;9.116;2023-02-08T22:23:58;25.63;;;12.13;;
65535;SDS011;52145;49.342;9.116;2023-02-08T22:26:24;26.73;;;13.05;;
65535;SDS011;52145;49.342;9.116;2023-02-08T22:28:49;27.42;;;12.57;;
65535;SDS011;52145;49.342;9.116;2023-02-08T22:31:15;24.23;;;12.60;;
65535;SDS011;52145;49.342;9.116;2023-02-08T22:33:41;28.25;;;13.02;;
65535;SDS011;52145;49.342;9.116;2023-02-08T22:36:07;27.73;;;12.82;;
65535;SDS011;52145;49.342;9.116;2023-02-08T22:38:34;25.45;;;11.65;;
65535;SDS011;52145;49.342;9.116;2023-02-08T22:41:00;22.98;;;12.80;;
65535;SDS011;52145;49.342;9.116;2023-02-08T22:43:27;20.48;;;11.13;;
65535;SDS011;52145;49.342;9.116;2023-02-08T22:45:56;24.40;;;12.35;;
65535;SDS011;52145;49.342;9.116;2023-02-08T22:48:23;21.73;;;10.45;;
65535;SDS011;52145;49.342;9.116;2023-02-08T22:50:48;23.92;;;11.55;;
65535;SDS011;52145;49.342;9.116;2023-02-08T22:53:14;20.58;;;10.57;;
65535;SDS011;52145;49.342;9.116;2023-02-08T22:55:39;20.95;;;10.20;;
65535;SDS011;52145;49.342;9.116;2023-02-08T22:58:11;21.70;;;10.35;;
65535;SDS011;52145;49.342;9.116;2023-02-08T23:00:36;23.45;;;11.40;;
65535;SDS011;52145;49.342;9.116;2023-02-08T23:03:02;20.98;;;10.90;;
65535;SDS011;52145;49.342;9.116;2023-02-08T23:05:28;22.10;;;10.95;;
65535;SDS011;52145;49.342;9.116;2023-02-08T23:07:53;21.77;;;11.18;;
65535;SDS011;52145;49.342;9.116;2023-02-08T23:10:19;25.80;;;11.00;;
65535;SDS011;52145;49.342;9.116;2023-02-08T23:12:44;20.50;;;10.68;;
65535;SDS011;52145;49.342;9.116;2023-02-08T23:15:10;22.35;;;12.27;;
65535;SDS011;52145;49.342;9.116;2023-02-08T23:17:35;22.75;;;10.68;;
65535;SDS011;52145;49.342;9.116;2023-02-08T23:20:01;24.45;;;10.68;;
65535;SDS011;52145;49.342;9.116;2023-02-08T23:22:26;21.58;;;11.27;;
65535;SDS011;52145;49.342;9.116;2023-02-08T23:24:52;19.38;;;10.02;;
65535;SDS011;52145;49.342;9.116;2023-02-08T23:27:19;21.30;;;10.63;;
65535;SDS011;52145;49.342;9.116;2023-02-08T23:29:44;23.88;;;11.00;;
65535;SDS011;52145;49.342;9.116;2023-02-08T23:32:10;21.70;;;10.40;;
65535;SDS011;52145;49.342;9.116;2023-02-08T23:34:35;19.48;;;10.95;;
65535;SDS011;52145;49.342;9.116;2023-02-08T23:37:01;18.30;;;9.13;;
65535;SDS011;52145;49.342;9.116;2023-02-08T23:39:26;22.75;;;11.48;;
65535;SDS011;52145;49.342;9.116;2023-02-08T23:41:53;20.23;;;10.32;;
65535;SDS011;52145;49.342;9.116;2023-02-08T23:44:19;22.05;;;11.48;;
65535;SDS011;52145;49.342;9.116;2023-02-08T23:46:45;20.85;;;10.48;;
65535;SDS011;52145;49.342;9.116;2023-02-08T23:49:10;26.88;;;12.93;;
65535;SDS011;52145;49.342;9.116;2023-02-08T23:51:36;22.50;;;11.65;;
65535;SDS011;52145;49.342;9.116;2023-02-08T23:54:01;23.38;;;10.82;;
65535;SDS011;52145;49.342;9.116;2023-02-08T23:56:28;19.30;;;10.40;;
65535;SDS011;52145;49.342;9.116;2023-02-08T23:58:56;17.80;;;9.55;;
